Terminal Aerodrome Forecast
Issued by NWS Sioux Falls, SD

Home | Current Version | Previous Version | Graphics & Text | Print | Product List | Glossary On
Versions: 1 2 3 4 5 6 7 8 9 10 11 12 13 14 15 16 17 18 19 20 21
000
FTUS43 KFSD 250406 AAE
TAFFSD
TAF AMD
KFSD 250406Z 2504/2524 36012G16KT 5SM -RA BR OVC007
      TEMPO 2504/2505 3SM -RASN
     FM250500 01018G25KT 3SM -SN OVC007
      TEMPO 2505/2508 1SM -SN OVC005
     FM250800 36018G25KT 5SM -SN OVC009
     FM251200 36015G22KT P6SM OVC015
     FM251600 35014KT P6SM BKN030
     FM252200 31005KT P6SM SCT040 BKN250=

USA.gov is the U.S. government's official web portal to all federal, state and local government web resources and services.